Time;durP1;ratioP1;P1;durP2;ratioP2;P2;SDS_P1;SDS_P2;PMS_P1;PMS_P2;Temp;Humidity;BMP_temperature;BMP_pressure;BME280_temperature;BME280_humidity;BME280_pressure;Samples;Min_cycle;Max_cycle;Signal;HPM_P1;HPM_P2
2023/05/03 00:00:59;;;;;;;0.63;0.63;;;4.20;99.90;;;;;;5057982;28;20048;-83
2023/05/03 00:03:25;;;;;;;0.00;0.00;;;4.00;1.00;;;;;;5057956;28;20052;-81
2023/05/03 00:05:51;;;;;;;0.00;0.00;;;3.90;99.90;;;;;;5058355;28;20041;-83
2023/05/03 00:08:16;;;;;;;0.00;0.00;;;3.80;1.00;;;;;;5056230;28;20290;-83
2023/05/03 00:10:42;;;;;;;0.05;0.05;;;3.70;14.80;;;;;;5058260;28;20438;-82
2023/05/03 00:13:07;;;;;;;0.25;0.25;;;3.50;76.60;;;;;;5058963;28;20051;-82
2023/05/03 00:15:33;;;;;;;0.68;0.22;;;3.40;99.90;;;;;;5057537;28;20053;-82
2023/05/03 00:17:59;;;;;;;0.00;0.00;;;3.30;99.90;;;;;;5058135;28;20045;-82
2023/05/03 00:20:24;;;;;;;0.00;0.00;;;3.20;99.90;;;;;;5058510;28;20049;-83
2023/05/03 00:22:51;;;;;;;0.10;0.10;;;3.10;99.90;;;;;;5058062;28;20053;-83
2023/05/03 00:25:17;;;;;;;0.82;0.82;;;3.00;99.90;;;;;;5057450;28;20135;-81
2023/05/03 00:27:42;;;;;;;1.27;1.17;;;3.00;99.90;;;;;;5057976;28;20405;-82
2023/05/03 00:30:09;;;;;;;0.10;0.05;;;2.90;1.00;;;;;;5056787;28;20045;-82
2023/05/03 00:32:35;;;;;;;0.00;0.00;;;2.90;1.00;;;;;;5056854;28;20041;-82
2023/05/03 00:35:01;;;;;;;0.00;0.00;;;2.90;32.30;;;;;;5056240;28;20076;-82
2023/05/03 00:37:26;;;;;;;0.00;0.00;;;2.90;99.90;;;;;;5057395;28;20041;-82
2023/05/03 00:39:52;;;;;;;0.00;0.00;;;2.90;99.90;;;;;;5058790;28;20403;-82
2023/05/03 00:42:18;;;;;;;0.00;0.00;;;2.90;99.90;;;;;;5057713;28;20045;-82
2023/05/03 00:44:44;;;;;;;0.20;0.20;;;2.90;1.00;;;;;;5059391;28;20049;-82
2023/05/03 00:47:10;;;;;;;0.00;0.00;;;2.90;65.20;;;;;;5061496;28;20041;-83
2023/05/03 00:49:36;;;;;;;0.00;0.00;;;3.00;99.90;;;;;;5062255;28;20128;-81
2023/05/03 00:52:01;;;;;;;0.03;0.03;;;3.00;1.00;;;;;;5061731;28;20048;-82
2023/05/03 00:54:28;;;;;;;0.00;0.00;;;3.00;1.00;;;;;;5061474;28;20057;-82
2023/05/03 00:56:55;;;;;;;0.00;0.00;;;3.00;35.10;;;;;;5061455;28;20057;-82
2023/05/03 00:59:21;;;;;;;0.00;0.00;;;2.80;99.90;;;;;;5061439;28;20475;-82
2023/05/03 01:01:49;;;;;;;0.13;0.13;;;3.20;1.00;;;;;;5061350;28;20044;-83
2023/05/03 01:04:16;;;;;;;0.38;0.30;;;3.10;99.90;;;;;;5060870;28;20399;-82
2023/05/03 01:07:10;;;;;;;0.00;0.00;;;3.20;99.90;;;;;;5059945;28;20048;-83
2023/05/03 01:10:03;;;;;;;0.10;0.10;;;3.30;99.90;;;;;;5038328;28;20071;-82
2023/05/03 01:12:37;;;;;;;1.05;0.55;;;3.40;99.90;;;;;;5061255;28;20056;-82
2023/05/03 01:15:08;;;;;;;0.50;0.50;;;3.80;99.90;;;;;;5060416;28;20214;-82
2023/05/03 01:17:56;;;;;;;3.95;0.63;;;3.60;99.90;;;;;;5058817;28;20056;-82
2023/05/03 01:20:24;;;;;;;0.05;0.05;;;3.70;99.90;;;;;;5058811;28;20426;-82
2023/05/03 01:23:27;;;;;;;12.48;0.55;;;3.80;99.90;;;;;;5059566;28;20041;-82
2023/05/03 01:25:53;;;;;;;0.17;0.17;;;3.90;99.90;;;;;;5058805;28;20068;-82
2023/05/03 01:28:19;;;;;;;0.00;0.00;;;3.90;99.90;;;;;;5059793;28;20041;-83
2023/05/03 01:30:46;;;;;;;0.00;0.00;;;4.00;99.90;;;;;;5059062;28;20040;-83
2023/05/03 01:33:34;;;;;;;0.00;0.00;;;4.00;99.90;;;;;;5058688;28;20057;-83
2023/05/03 01:36:10;;;;;;;0.00;0.00;;;4.00;94.40;;;;;;5058579;28;20077;-84
2023/05/03 01:38:36;;;;;;;0.00;0.00;;;4.00;18.90;;;;;;5058773;28;20181;-83
2023/05/03 01:41:08;;;;;;;0.00;0.00;;;4.00;77.90;;;;;;5058546;28;20431;-83
2023/05/03 01:43:35;;;;;;;0.00;0.00;;;4.00;1.00;;;;;;5058772;28;20063;-82
2023/05/03 01:46:00;;;;;;;0.10;0.10;;;4.00;46.00;;;;;;5058332;28;20040;-83
2023/05/03 01:48:26;;;;;;;0.03;0.03;;;3.90;1.00;;;;;;5058437;28;20052;-82
2023/05/03 01:50:51;;;;;;;0.00;0.00;;;3.80;1.00;;;;;;5059155;28;20051;-82
2023/05/03 01:53:17;;;;;;;0.00;0.00;;;3.80;22.80;;;;;;5058299;28;20075;-83
2023/05/03 01:55:43;;;;;;;0.00;0.00;;;3.70;49.40;;;;;;5060270;28;20083;-83
2023/05/03 01:58:08;;;;;;;3.15;1.42;;;3.60;99.90;;;;;;5059661;28;20049;-83
2023/05/03 02:00:34;;;;;;;0.10;0.10;;;3.50;99.90;;;;;;5061451;28;20049;-83
2023/05/03 02:03:00;;;;;;;0.00;0.00;;;3.50;99.90;;;;;;5061254;28;20045;-83
2023/05/03 02:05:25;;;;;;;0.00;0.00;;;3.40;99.90;;;;;;5057558;28;20103;-82
2023/05/03 02:07:51;;;;;;;0.00;0.00;;;3.40;99.90;;;;;;5058217;28;20055;-82
2023/05/03 02:10:17;;;;;;;0.00;0.00;;;3.30;99.90;;;;;;5060203;28;20067;-82
2023/05/03 02:12:43;;;;;;;0.82;0.68;;;3.20;99.90;;;;;;5059645;28;20083;-82
2023/05/03 02:15:10;;;;;;;0.00;0.00;;;3.10;99.90;;;;;;5059957;28;20068;-83
2023/05/03 02:17:36;;;;;;;0.00;0.00;;;2.90;99.90;;;;;;5057955;28;20037;-82
2023/05/03 02:20:09;;;;;;;0.00;0.00;;;2.80;99.90;;;;;;5059811;28;20051;-82
2023/05/03 02:22:35;;;;;;;0.00;0.00;;;2.70;99.90;;;;;;5059789;28;20056;-82
2023/05/03 02:25:01;;;;;;;0.00;0.00;;;2.60;99.90;;;;;;5058290;28;20075;-82
2023/05/03 02:27:27;;;;;;;0.00;0.00;;;2.50;99.90;;;;;;5058121;28;20041;-83
2023/05/03 02:29:52;;;;;;;0.00;0.00;;;2.50;99.90;;;;;;5058271;28;20075;-82
2023/05/03 02:32:20;;;;;;;0.00;0.00;;;2.30;99.90;;;;;;5058887;28;20055;-82
2023/05/03 02:34:47;;;;;;;0.40;0.40;;;2.30;99.90;;;;;;5057297;28;20052;-82
2023/05/03 02:37:13;;;;;;;0.00;0.00;;;2.20;1.00;;;;;;5058639;28;20045;-82
2023/05/03 02:39:39;;;;;;;0.00;0.00;;;2.10;1.00;;;;;;5059234;28;20096;-83
2023/05/03 02:42:04;;;;;;;0.43;0.43;;;2.00;1.00;;;;;;5058139;28;20045;-83
2023/05/03 02:44:30;;;;;;;0.00;0.00;;;2.10;1.00;;;;;;5058593;28;20053;-83
2023/05/03 02:46:56;;;;;;;0.20;0.20;;;2.10;1.00;;;;;;5059103;28;20045;-82
2023/05/03 02:49:22;;;;;;;0.00;0.00;;;2.20;1.00;;;;;;5058598;28;20045;-82
2023/05/03 02:51:47;;;;;;;0.35;0.35;;;2.20;67.00;;;;;;5059335;28;20045;-83
2023/05/03 02:54:13;;;;;;;0.00;0.00;;;2.40;94.70;;;;;;5059282;28;20057;-83
2023/05/03 02:56:39;;;;;;;0.00;0.00;;;2.40;94.40;;;;;;5060453;28;20059;-82
2023/05/03 02:59:04;;;;;;;0.00;0.00;;;2.50;40.20;;;;;;5059526;28;20052;-82
2023/05/03 03:01:32;;;;;;;0.00;0.00;;;2.60;81.70;;;;;;5059833;28;20084;-82
2023/05/03 03:03:58;;;;;;;0.10;0.10;;;2.60;68.90;;;;;;5059867;28;20059;-83
2023/05/03 03:06:24;;;;;;;0.00;0.00;;;2.70;43.00;;;;;;5059093;28;20045;-82
2023/05/03 03:08:50;;;;;;;0.25;0.25;;;2.70;20.70;;;;;;5058649;28;20083;-83
2023/05/03 03:11:16;;;;;;;0.00;0.00;;;2.80;3.40;;;;;;5058228;28;20077;-83
2023/05/03 03:13:41;;;;;;;0.00;0.00;;;2.90;32.00;;;;;;5057183;28;20542;-83
2023/05/03 03:16:08;;;;;;;0.20;0.20;;;2.90;37.90;;;;;;5058317;28;20345;-84
2023/05/03 03:18:33;;;;;;;0.00;0.00;;;3.00;4.50;;;;;;5056974;28;20063;-83
2023/05/03 03:21:01;;;;;;;0.25;0.25;;;3.20;36.50;;;;;;5057623;28;20263;-83
2023/05/03 03:23:27;;;;;;;0.10;0.10;;;3.10;18.30;;;;;;5059469;28;20104;-82
2023/05/03 03:25:52;;;;;;;0.40;0.38;;;3.80;14.90;;;;;;5056288;28;20087;-83
2023/05/03 03:28:18;;;;;;;0.00;0.00;;;3.20;62.10;;;;;;5057304;28;20036;-82
2023/05/03 03:30:44;;;;;;;0.05;0.05;;;3.30;6.50;;;;;;5057482;28;20543;-84
2023/05/03 03:33:10;;;;;;;0.43;0.22;;;3.30;18.90;;;;;;5057655;28;20051;-83
2023/05/03 03:35:37;;;;;;;0.00;0.00;;;3.40;1.00;;;;;;5057020;28;20506;-82
2023/05/03 03:38:03;;;;;;;0.38;0.38;;;3.40;20.00;;;;;;5057137;28;20544;-82
2023/05/03 03:40:28;;;;;;;0.00;0.00;;;3.50;83.40;;;;;;5057600;28;20041;-83
2023/05/03 03:42:54;;;;;;;0.10;0.10;;;3.50;99.90;;;;;;5056764;28;20439;-82
2023/05/03 03:45:20;;;;;;;0.00;0.00;;;3.50;99.90;;;;;;5058079;28;20051;-83
2023/05/03 03:47:45;;;;;;;0.00;0.00;;;3.50;99.90;;;;;;5057060;28;20104;-83
2023/05/03 03:50:11;;;;;;;0.10;0.10;;;3.60;99.90;;;;;;5058068;28;20116;-83
2023/05/03 03:52:37;;;;;;;3.20;0.70;;;3.70;54.80;;;;;;5058039;28;20044;-82
2023/05/03 03:55:02;;;;;;;0.00;0.00;;;3.80;99.90;;;;;;5058662;28;20061;-82
2023/05/03 03:57:30;;;;;;;0.10;0.10;;;3.80;99.90;;;;;;5057473;28;20053;-82
2023/05/03 03:59:59;;;;;;;0.00;0.00;;;3.70;99.90;;;;;;5056735;28;20059;-83
2023/05/03 04:02:26;;;;;;;0.00;0.00;;;3.80;99.90;;;;;;5057598;28;20041;-83
2023/05/03 04:04:51;;;;;;;0.20;0.20;;;3.80;99.90;;;;;;5057571;28;20055;-82
2023/05/03 04:07:17;;;;;;;0.10;0.10;;;3.90;50.60;;;;;;5057666;28;20080;-83
2023/05/03 04:09:43;;;;;;;0.00;0.00;;;4.00;21.50;;;;;;5057131;28;20044;-83
2023/05/03 04:12:08;;;;;;;0.00;0.00;;;4.00;1.00;;;;;;5056961;28;20047;-83
2023/05/03 04:14:34;;;;;;;0.00;0.00;;;4.10;51.90;;;;;;5058098;28;20467;-83
2023/05/03 04:17:00;;;;;;;0.28;0.25;;;4.10;15.30;;;;;;5059433;28;20120;-83
2023/05/03 04:19:27;;;;;;;0.00;0.00;;;4.10;1.00;;;;;;5059428;28;20138;-82
2023/05/03 04:21:52;;;;;;;0.10;0.10;;;4.10;1.00;;;;;;5041344;28;20134;-84
2023/05/03 04:24:18;;;;;;;0.00;0.00;;;4.20;1.00;;;;;;5058603;28;20037;-83
2023/05/03 04:26:44;;;;;;;0.10;0.10;;;4.20;1.00;;;;;;5059245;28;20056;-83
2023/05/03 04:29:10;;;;;;;0.30;0.30;;;4.30;1.00;;;;;;5064718;28;20071;-83
2023/05/03 04:31:37;;;;;;;0.00;0.00;;;4.30;1.00;;;;;;5065458;28;20040;-82
2023/05/03 04:34:03;;;;;;;0.00;0.00;;;4.30;1.00;;;;;;5060176;28;20041;-82
2023/05/03 04:36:29;;;;;;;0.08;0.08;;;4.30;1.00;;;;;;5059956;28;20617;-83
2023/05/03 04:38:55;;;;;;;0.00;0.00;;;4.30;1.00;;;;;;5058145;28;20099;-83
2023/05/03 04:41:21;;;;;;;0.10;0.10;;;4.30;1.00;;;;;;5058613;28;20045;-82
2023/05/03 04:43:47;;;;;;;0.00;0.00;;;4.30;1.00;;;;;;5055828;28;20053;-84
2023/05/03 04:46:12;;;;;;;0.73;0.52;;;4.30;1.00;;;;;;5055798;28;20052;-82
2023/05/03 04:48:38;;;;;;;0.00;0.00;;;4.40;1.00;;;;;;5054992;28;20063;-83
2023/05/03 04:51:04;;;;;;;0.00;0.00;;;4.50;1.00;;;;;;5056802;28;20049;-84
2023/05/03 04:53:30;;;;;;;0.30;0.22;;;4.60;1.00;;;;;;5056609;28;20040;-83
2023/05/03 04:55:55;;;;;;;0.13;0.13;;;4.80;1.00;;;;;;5056925;28;20092;-83
2023/05/03 04:58:21;;;;;;;1.23;1.10;;;4.80;1.00;;;;;;5056774;28;20479;-83
2023/05/03 05:00:47;;;;;;;0.00;0.00;;;4.90;1.00;;;;;;5056747;28;20045;-83
2023/05/03 05:03:13;;;;;;;0.00;0.00;;;5.00;1.00;;;;;;5056153;28;20060;-83
2023/05/03 05:05:39;;;;;;;0.25;0.17;;;5.20;1.00;;;;;;5057151;28;20495;-82
2023/05/03 05:08:05;;;;;;;0.00;0.00;;;5.80;1.00;;;;;;5056702;28;20045;-82
2023/05/03 05:10:31;;;;;;;0.00;0.00;;;5.40;1.00;;;;;;5057788;28;20041;-83
2023/05/03 05:12:57;;;;;;;0.00;0.00;;;5.50;1.00;;;;;;5057227;28;20045;-83
2023/05/03 05:15:22;;;;;;;0.00;0.00;;;5.60;1.00;;;;;;5056902;28;20048;-83
2023/05/03 05:17:48;;;;;;;0.10;0.10;;;5.70;99.90;;;;;;5056099;28;20052;-83
2023/05/03 05:20:14;;;;;;;0.00;0.00;;;5.80;99.90;;;;;;5055904;28;20045;-83
2023/05/03 05:22:39;;;;;;;0.00;0.00;;;6.20;99.90;;;;;;5055578;28;20110;-83
2023/05/03 05:25:06;;;;;;;0.00;0.00;;;6.10;99.90;;;;;;5055508;28;20557;-83
2023/05/03 05:27:32;;;;;;;0.15;0.10;;;6.20;99.90;;;;;;5055357;28;20041;-82
2023/05/03 05:29:58;;;;;;;0.05;0.05;;;6.30;99.90;;;;;;5055152;28;20049;-84
2023/05/03 05:32:23;;;;;;;0.00;0.00;;;6.40;99.90;;;;;;5058543;28;20044;-82
2023/05/03 05:34:54;;;;;;;0.88;0.20;;;6.60;99.90;;;;;;5058488;28;20048;-82
2023/05/03 05:37:21;;;;;;;0.20;0.20;;;6.70;1.00;;;;;;5048154;28;20048;-84
2023/05/03 05:39:47;;;;;;;0.63;0.55;;;6.80;1.00;;;;;;5056302;28;20053;-82
2023/05/03 05:42:12;;;;;;;0.10;0.10;;;6.90;1.00;;;;;;5050636;28;20039;-84
2023/05/03 05:44:38;;;;;;;0.00;0.00;;;7.10;1.00;;;;;;5045469;28;20041;-84
2023/05/03 05:47:04;;;;;;;1.10;0.80;;;7.20;1.00;;;;;;5052780;28;20463;-83
2023/05/03 05:49:29;;;;;;;0.00;0.00;;;7.30;99.90;;;;;;5039155;28;20063;-83
2023/05/03 05:51:56;;;;;;;0.05;0.05;;;7.40;99.90;;;;;;5040353;28;20278;-84
2023/05/03 05:54:22;;;;;;;0.10;0.10;;;7.50;1.00;;;;;;5039567;28;20049;-83
2023/05/03 05:56:48;;;;;;;0.20;0.10;;;7.60;99.90;;;;;;5039555;28;20180;-84
2023/05/03 05:59:13;;;;;;;0.00;0.00;;;7.80;99.90;;;;;;5039598;28;20049;-83
2023/05/03 06:01:44;;;;;;;0.00;0.00;;;7.90;99.90;;;;;;5039471;28;20041;-83
2023/05/03 06:04:14;;;;;;;0.80;0.60;;;8.00;99.90;;;;;;5040923;28;20052;-83
2023/05/03 06:06:40;;;;;;;0.60;0.60;;;8.10;99.90;;;;;;5046031;28;20083;-83
2023/05/03 06:09:07;;;;;;;0.00;0.00;;;8.20;99.90;;;;;;5062007;28;20211;-82
2023/05/03 06:11:34;;;;;;;0.10;0.10;;;8.30;99.90;;;;;;5047076;28;20044;-81
2023/05/03 06:14:02;;;;;;;0.00;0.00;;;8.40;99.90;;;;;;5043120;28;20112;-81
2023/05/03 06:16:28;;;;;;;0.05;0.05;;;8.40;99.90;;;;;;5041584;28;20045;-83
2023/05/03 06:18:54;;;;;;;0.00;0.00;;;8.50;1.00;;;;;;5042871;28;20048;-82
2023/05/03 06:21:20;;;;;;;0.05;0.05;;;8.70;99.90;;;;;;5042432;28;20053;-83
2023/05/03 06:23:46;;;;;;;0.10;0.10;;;8.70;99.90;;;;;;5038466;28;20053;-83
2023/05/03 06:26:12;;;;;;;0.00;0.00;;;8.80;99.90;;;;;;5040150;28;20100;-83
2023/05/03 06:28:37;;;;;;;0.00;0.00;;;8.90;1.00;;;;;;5039683;28;20507;-82
2023/05/03 06:31:03;;;;;;;0.20;0.20;;;9.00;99.90;;;;;;5040819;28;20049;-83
2023/05/03 06:33:29;;;;;;;0.13;0.10;;;9.00;99.90;;;;;;5041085;28;20044;-84
2023/05/03 06:35:55;;;;;;;0.10;0.00;;;9.00;99.90;;;;;;5039923;28;20049;-83
2023/05/03 06:38:21;;;;;;;0.00;0.00;;;9.00;99.90;;;;;;5040983;28;20049;-84
2023/05/03 06:40:47;;;;;;;0.13;0.13;;;9.10;99.90;;;;;;5040064;28;20523;-84
2023/05/03 06:43:13;;;;;;;0.00;0.00;;;9.60;99.90;;;;;;5049251;28;20045;-82
2023/05/03 06:45:43;;;;;;;0.00;0.00;;;9.20;99.90;;;;;;5053990;28;20049;-83
2023/05/03 06:48:09;;;;;;;0.00;0.00;;;9.30;99.90;;;;;;5048112;28;20604;-83
2023/05/03 06:50:35;;;;;;;0.00;0.00;;;9.30;99.90;;;;;;5058406;28;20047;-83
2023/05/03 06:53:01;;;;;;;0.00;0.00;;;9.40;99.90;;;;;;5057539;28;20049;-83
2023/05/03 06:55:27;;;;;;;0.00;0.00;;;9.60;99.90;;;;;;5058488;28;20067;-84
2023/05/03 06:57:52;;;;;;;0.00;0.00;;;9.80;99.90;;;;;;5055742;28;20049;-84
2023/05/03 07:00:20;;;;;;;0.00;0.00;;;9.90;99.90;;;;;;5056672;28;20041;-83
2023/05/03 07:02:46;;;;;;;0.00;0.00;;;10.20;99.90;;;;;;5057702;28;20045;-84
2023/05/03 07:05:12;;;;;;;0.15;0.10;;;10.10;99.90;;;;;;5058617;28;20052;-84
2023/05/03 07:07:37;;;;;;;0.10;0.10;;;11.20;99.90;;;;;;5057917;28;20043;-84
2023/05/03 07:10:03;;;;;;;0.00;0.00;;;10.30;98.50;;;;;;5058607;28;20044;-83
2023/05/03 07:12:29;;;;;;;0.00;0.00;;;10.40;99.90;;;;;;5058922;28;20049;-83
2023/05/03 07:14:55;;;;;;;3.40;0.20;;;10.40;91.40;;;;;;5059117;28;20056;-84
2023/05/03 07:17:21;;;;;;;0.73;0.47;;;10.50;99.90;;;;;;5058482;28;20434;-84
2023/05/03 07:19:48;;;;;;;0.10;0.10;;;10.90;83.10;;;;;;5064961;28;20049;-84
2023/05/03 07:22:14;;;;;;;0.00;0.00;;;10.50;72.60;;;;;;5064215;28;20036;-84
2023/05/03 07:24:40;;;;;;;0.00;0.00;;;10.40;54.10;;;;;;5068227;28;20045;-84
2023/05/03 07:27:05;;;;;;;0.00;0.00;;;10.30;36.60;;;;;;5066614;28;20049;-84
2023/05/03 07:29:31;;;;;;;0.20;0.20;;;11.30;30.00;;;;;;5070265;28;21965;-84
2023/05/03 07:31:58;;;;;;;0.00;0.00;;;10.40;29.90;;;;;;5065967;28;20044;-84
2023/05/03 07:34:23;;;;;;;0.00;0.00;;;10.50;41.50;;;;;;5067697;28;20041;-83
2023/05/03 07:36:49;;;;;;;0.10;0.10;;;10.60;25.70;;;;;;5067225;28;20031;-84
2023/05/03 07:39:16;;;;;;;0.00;0.00;;;10.60;24.70;;;;;;5059560;28;20052;-83
2023/05/03 07:41:41;;;;;;;0.00;0.00;;;10.60;19.30;;;;;;5048310;28;20107;-84
2023/05/03 07:44:07;;;;;;;0.00;0.00;;;10.70;23.20;;;;;;5046870;28;20064;-84
2023/05/03 07:46:33;;;;;;;0.98;0.22;;;10.90;29.90;;;;;;5047984;28;20049;-83
2023/05/03 07:49:00;;;;;;;0.30;0.08;;;10.90;11.30;;;;;;5044102;28;20450;-84
2023/05/03 07:51:27;;;;;;;0.00;0.00;;;11.00;7.30;;;;;;5044551;28;20041;-84
2023/05/03 07:53:55;;;;;;;0.08;0.08;;;11.20;7.50;;;;;;5041455;28;20069;-84
2023/05/03 07:56:21;;;;;;;0.15;0.10;;;11.10;1.00;;;;;;5044887;28;20525;-84
2023/05/03 07:58:47;;;;;;;0.10;0.10;;;11.30;7.20;;;;;;5044295;28;20056;-84
2023/05/03 08:01:12;;;;;;;1.35;1.25;;;11.50;16.80;;;;;;5040568;28;20084;-84
2023/05/03 08:03:38;;;;;;;0.00;0.00;;;11.80;10.50;;;;;;5046489;28;20036;-84
2023/05/03 08:06:04;;;;;;;0.00;0.00;;;11.80;3.80;;;;;;5042262;28;20041;-84
2023/05/03 08:08:31;;;;;;;0.00;0.00;;;11.80;1.00;;;;;;5030992;28;20050;-84
2023/05/03 08:10:56;;;;;;;0.00;0.00;;;11.50;1.00;;;;;;5023177;28;20129;-84
2023/05/03 08:13:22;;;;;;;0.00;0.00;;;11.50;1.00;;;;;;5036123;28;20128;-84
2023/05/03 08:15:49;;;;;;;0.00;0.00;;;11.70;1.00;;;;;;5028780;28;20053;-84
2023/05/03 08:18:14;;;;;;;0.00;0.00;;;11.70;1.00;;;;;;5041630;28;20615;-84
2023/05/03 08:20:41;;;;;;;0.43;0.43;;;11.80;1.00;;;;;;5030587;28;20124;-84
2023/05/03 08:23:06;;;;;;;0.00;0.00;;;12.10;1.00;;;;;;5046285;28;20140;-84
2023/05/03 08:25:33;;;;;;;0.00;0.00;;;12.50;1.00;;;;;;5042948;28;20721;-84
2023/05/03 08:27:58;;;;;;;2.90;0.43;;;12.90;6.20;;;;;;5040598;28;20525;-84
2023/05/03 08:30:24;;;;;;;0.00;0.00;;;13.70;1.00;;;;;;5040147;28;20127;-84
2023/05/03 08:32:50;;;;;;;0.00;0.00;;;12.60;1.00;;;;;;5039418;28;20132;-84
2023/05/03 08:35:16;;;;;;;0.45;0.20;;;12.60;1.00;;;;;;5039751;28;20128;-84
2023/05/03 08:37:42;;;;;;;0.00;0.00;;;13.00;1.00;;;;;;5038751;28;20101;-84
2023/05/03 08:40:12;;;;;;;0.00;0.00;;;12.60;1.00;;;;;;5033029;28;20288;-84
2023/05/03 08:42:43;;;;;;;0.00;0.00;;;12.50;1.00;;;;;;5024315;28;20045;-84
2023/05/03 08:45:10;;;;;;;0.00;0.00;;;12.40;1.00;;;;;;5021206;28;20476;-84
2023/05/03 08:47:39;;;;;;;0.00;0.00;;;12.60;1.00;;;;;;5028928;28;20056;-84
2023/05/03 08:50:05;;;;;;;0.17;0.17;;;13.30;1.00;;;;;;5042363;28;20049;-84
2023/05/03 08:52:33;;;;;;;0.00;0.00;;;12.70;1.00;;;;;;5036040;28;20049;-84
2023/05/03 08:54:59;;;;;;;0.20;0.20;;;12.40;1.00;;;;;;5021897;28;20057;-84
2023/05/03 08:57:26;;;;;;;0.08;0.08;;;12.40;1.00;;;;;;5022321;28;20058;-84
2023/05/03 08:59:53;;;;;;;0.00;0.00;;;12.40;1.00;;;;;;5021067;28;20053;-85
2023/05/03 09:02:19;;;;;;;0.00;0.00;;;13.20;1.00;;;;;;5021655;28;20080;-84
2023/05/03 09:04:45;;;;;;;0.10;0.10;;;13.00;1.00;;;;;;5037678;28;20097;-84
2023/05/03 09:07:11;;;;;;;0.40;0.40;;;12.80;1.00;;;;;;5044727;28;20045;-84
2023/05/03 09:09:37;;;;;;;0.10;0.10;;;13.10;1.00;;;;;;5045084;28;20049;-84
2023/05/03 09:12:04;;;;;;;0.00;0.00;;;13.40;1.00;;;;;;5045070;28;20048;-84
2023/05/03 09:14:40;;;;;;;0.10;0.10;;;13.50;1.00;;;;;;5045167;28;20410;-84
2023/05/03 09:17:24;;;;;;;0.00;0.00;;;13.20;1.00;;;;;;5043760;28;20053;-85
2023/05/03 09:19:52;;;;;;;0.10;0.10;;;13.30;1.00;;;;;;5045621;28;20055;-84
2023/05/03 09:22:18;;;;;;;0.00;0.00;;;13.00;1.00;;;;;;5044605;28;20095;-84
2023/05/03 09:24:51;;;;;;;0.60;0.45;;;13.20;1.00;;;;;;5039488;28;20049;-84
2023/05/03 09:27:20;;;;;;;0.75;0.47;;;13.10;1.00;;;;;;5023539;28;20475;-85
2023/05/03 09:29:47;;;;;;;0.15;0.10;;;13.30;1.00;;;;;;5025023;28;20575;-84
2023/05/03 09:32:13;;;;;;;0.00;0.00;;;13.40;1.00;;;;;;5025480;28;20505;-85
2023/05/03 09:34:39;;;;;;;0.00;0.00;;;13.40;1.00;;;;;;5025099;28;20044;-84
2023/05/03 09:37:05;;;;;;;0.00;0.00;;;13.90;1.00;;;;;;5023799;28;20095;-85
2023/05/03 09:39:31;;;;;;;0.00;0.00;;;13.80;1.00;;;;;;5025332;28;20432;-84
2023/05/03 09:41:57;;;;;;;5.97;0.20;;;14.10;1.00;;;;;;5025105;28;20146;-84
2023/05/03 09:44:43;;;;;;;0.00;0.00;;;13.40;1.00;;;;;;5024970;28;20046;-84
2023/05/03 09:47:10;;;;;;;0.08;0.08;;;13.50;1.00;;;;;;5024375;28;20037;-84
2023/05/03 09:49:37;;;;;;;0.08;0.00;;;14.50;1.00;;;;;;5024291;28;20127;-84
2023/05/03 09:52:03;;;;;;;0.80;0.35;;;14.20;1.00;;;;;;5042811;28;20375;-84
2023/05/03 09:54:30;;;;;;;0.00;0.00;;;14.20;1.00;;;;;;5044510;28;20095;-84
2023/05/03 09:56:56;;;;;;;0.17;0.17;;;14.00;1.00;;;;;;5026667;28;20067;-85
2023/05/03 09:59:22;;;;;;;0.08;0.08;;;14.30;1.00;;;;;;5025806;28;20055;-85
2023/05/03 10:01:51;;;;;;;0.13;0.13;;;14.70;1.00;;;;;;5041019;28;20041;-86
2023/05/03 10:04:19;;;;;;;0.00;0.00;;;14.90;1.00;;;;;;5043680;28;20052;-85
2023/05/03 10:06:48;;;;;;;0.00;0.00;;;16.20;1.00;;;;;;5042870;28;20068;-85
2023/05/03 10:09:33;;;;;;;0.25;0.15;;;15.70;1.00;;;;;;5023228;28;20057;-85
2023/05/03 10:12:03;;;;;;;0.47;0.20;;;15.30;1.00;;;;;;5022290;28;20060;-85
2023/05/03 10:14:28;;;;;;;0.30;0.30;;;16.30;1.00;;;;;;5023817;28;20057;-85
2023/05/03 10:17:01;;;;;;;0.00;0.00;;;15.40;1.00;;;;;;5023738;28;20049;-86
2023/05/03 10:19:39;;;;;;;0.00;0.00;;;15.90;1.00;;;;;;5040737;28;20103;-85
2023/05/03 10:22:06;;;;;;;0.05;0.05;;;15.60;1.00;;;;;;5037693;28;20132;-85
2023/05/03 10:24:33;;;;;;;1.27;0.70;;;15.80;1.00;;;;;;5043697;28;20499;-85
2023/05/03 10:26:59;;;;;;;0.32;0.28;;;15.50;1.00;;;;;;5044191;28;20055;-84
2023/05/03 10:29:47;;;;;;;0.38;0.35;;;15.60;1.00;;;;;;5044366;28;20140;-85
2023/05/03 10:32:31;;;;;;;0.08;0.08;;;15.20;1.00;;;;;;5043489;28;20475;-85
2023/05/03 10:35:02;;;;;;;0.30;0.30;;;14.90;1.00;;;;;;5043908;28;20049;-85
2023/05/03 10:37:27;;;;;;;0.00;0.00;;;14.60;1.00;;;;;;5044690;28;20076;-85
2023/05/03 10:39:54;;;;;;;0.00;0.00;;;14.70;1.00;;;;;;5044883;28;20087;-85
2023/05/03 10:42:27;;;;;;;0.00;0.00;;;15.20;1.00;;;;;;5044950;28;20434;-85
2023/05/03 10:44:53;;;;;;;1.55;0.73;;;15.70;1.00;;;;;;5044576;28;20052;-85
2023/05/03 10:47:23;;;;;;;0.47;0.43;;;16.00;1.00;;;;;;5026029;28;20045;-85
2023/05/03 10:50:14;;;;;;;0.20;0.00;;;15.60;1.00;;;;;;5024427;28;20481;-85
2023/05/03 10:52:40;;;;;;;0.43;0.28;;;14.90;1.00;;;;;;5024492;28;20146;-85
2023/05/03 10:55:13;;;;;;;0.00;0.00;;;14.70;1.00;;;;;;5026163;28;20081;-86
2023/05/03 10:57:43;;;;;;;0.00;0.00;;;15.10;1.00;;;;;;5044242;28;20368;-85
2023/05/03 11:00:20;;;;;;;0.75;0.75;;;15.60;1.00;;;;;;5044266;28;20060;-85
2023/05/03 11:03:20;;;;;;;0.05;0.03;;;16.00;1.00;;;;;;5044042;28;20044;-86
2023/05/03 11:05:50;;;;;;;0.80;0.47;;;16.60;1.00;;;;;;5024047;28;20407;-85
2023/05/03 11:08:21;;;;;;;0.00;0.00;;;16.60;1.00;;;;;;5024247;28;20053;-85
2023/05/03 11:10:50;;;;;;;0.00;0.00;;;16.90;1.00;;;;;;5023786;28;20049;-85
2023/05/03 11:13:15;;;;;;;0.00;0.00;;;17.10;1.00;;;;;;5024367;28;20038;-85
2023/05/03 11:15:42;;;;;;;0.38;0.30;;;17.20;1.00;;;;;;5024034;28;20518;-85
2023/05/03 11:18:10;;;;;;;0.30;0.30;;;16.60;1.00;;;;;;5023850;28;20561;-86
2023/05/03 11:20:37;;;;;;;0.00;0.00;;;16.30;1.00;;;;;;5022283;28;20041;-86
2023/05/03 11:23:03;;;;;;;0.00;0.00;;;16.30;1.00;;;;;;5024214;28;20054;-85
2023/05/03 11:25:29;;;;;;;0.00;0.00;;;15.60;1.00;;;;;;5023656;28;20427;-86
2023/05/03 11:27:55;;;;;;;0.00;0.00;;;16.20;1.00;;;;;;5033533;28;20045;-85
2023/05/03 11:30:21;;;;;;;1.75;0.70;;;15.50;1.00;;;;;;5043695;28;20399;-85
2023/05/03 11:32:47;;;;;;;0.73;0.20;;;15.80;1.00;;;;;;5043408;28;20049;-85
2023/05/03 11:35:14;;;;;;;0.35;0.22;;;15.30;1.00;;;;;;5043200;28;20514;-86
2023/05/03 11:37:41;;;;;;;0.00;0.00;;;14.80;1.00;;;;;;5043489;28;20041;-85
2023/05/03 11:40:15;;;;;;;0.22;0.17;;;14.90;1.00;;;;;;5043681;28;20071;-85
2023/05/03 11:42:57;;;;;;;0.10;0.10;;;15.30;1.00;;;;;;5043373;28;20170;-85
2023/05/03 11:45:31;;;;;;;0.05;0.05;;;15.40;1.00;;;;;;5039171;28;20491;-85
2023/05/03 11:47:57;;;;;;;0.52;0.25;;;15.20;1.00;;;;;;5023247;28;20049;-85
2023/05/03 11:50:43;;;;;;;0.38;0.30;;;15.00;1.00;;;;;;5023120;28;20057;-85
2023/05/03 11:53:10;;;;;;;0.38;0.20;;;15.10;1.00;;;;;;5022157;28;20049;-85
2023/05/03 11:55:47;;;;;;;4.05;1.55;;;15.20;1.00;;;;;;5022655;28;20099;-85
2023/05/03 11:58:16;;;;;;;0.22;0.22;;;15.20;1.00;;;;;;5023217;28;20115;-85
2023/05/03 12:00:44;;;;;;;0.00;0.00;;;14.60;1.00;;;;;;5022801;28;20487;-85
2023/05/03 12:03:10;;;;;;;0.00;0.00;;;14.30;1.00;;;;;;5022824;28;20057;-85
2023/05/03 12:05:35;;;;;;;0.00;0.00;;;14.50;1.00;;;;;;5022395;28;20056;-85
2023/05/03 12:08:01;;;;;;;0.00;0.00;;;15.10;1.00;;;;;;5023269;28;20045;-85
2023/05/03 12:10:31;;;;;;;0.00;0.00;;;15.90;1.00;;;;;;5033318;28;20128;-85
2023/05/03 12:12:58;;;;;;;0.10;0.10;;;17.20;1.00;;;;;;5043509;28;20108;-85
2023/05/03 12:15:36;;;;;;;1.80;0.85;;;17.50;1.00;;;;;;5042812;28;20056;-85
2023/05/03 12:18:06;;;;;;;0.20;0.20;;;16.60;1.00;;;;;;5043365;28;20064;-85
2023/05/03 12:20:32;;;;;;;0.20;0.20;;;17.00;1.00;;;;;;5031215;28;20102;-85
2023/05/03 12:23:06;;;;;;;0.08;0.08;;;17.90;1.00;;;;;;5037710;28;20048;-85
2023/05/03 12:25:33;;;;;;;0.15;0.05;;;18.20;1.00;;;;;;5042656;28;20087;-85
2023/05/03 12:28:04;;;;;;;0.08;0.08;;;18.70;1.00;;;;;;5028281;28;20045;-85
2023/05/03 12:30:31;;;;;;;0.00;0.00;;;19.20;5.20;;;;;;5022615;28;20053;-85
2023/05/03 12:32:57;;;;;;;0.10;0.10;;;19.10;1.00;;;;;;5032803;28;20040;-86
2023/05/03 12:35:23;;;;;;;0.00;0.00;;;19.30;1.00;;;;;;5027818;28;20069;-87
2023/05/03 12:37:49;;;;;;;0.00;0.00;;;18.80;1.00;;;;;;5028804;28;20056;-87
2023/05/03 12:40:17;;;;;;;0.35;0.35;;;19.00;1.00;;;;;;5044231;28;20045;-88
2023/05/03 12:42:43;;;;;;;0.57;0.55;;;19.50;1.00;;;;;;5047316;28;20051;-87
2023/05/03 12:45:10;;;;;;;0.00;0.00;;;19.70;1.00;;;;;;5029377;28;20040;-85
2023/05/03 12:47:36;;;;;;;0.00;0.00;;;19.80;1.00;;;;;;5034575;28;20399;-85
2023/05/03 12:50:02;;;;;;;0.20;0.17;;;19.90;1.00;;;;;;5035701;28;20057;-84
2023/05/03 12:52:30;;;;;;;2.85;1.38;;;19.50;1.00;;;;;;5037740;28;20139;-84
2023/05/03 12:54:57;;;;;;;0.10;0.10;;;19.00;1.00;;;;;;5037594;28;20076;-81
2023/05/03 12:57:23;;;;;;;0.00;0.00;;;18.30;1.00;;;;;;5041865;28;20527;-80
2023/05/03 12:59:52;;;;;;;0.32;0.30;;;18.20;1.00;;;;;;5042192;28;20057;-82